createdAt,value
2017-01-12T00:00:16.019Z,24.87
2017-01-12T00:01:15.661Z,25.07
2017-01-12T00:02:15.549Z,24.97
2017-01-12T00:03:15.433Z,24.97
2017-01-12T00:04:15.884Z,25.07
2017-01-12T00:05:15.892Z,25.07
2017-01-12T00:06:15.453Z,24.97
2017-01-12T00:07:15.806Z,24.97
2017-01-12T00:08:15.419Z,24.97
2017-01-12T00:09:15.529Z,24.87
2017-01-12T00:10:15.531Z,25.07
2017-01-12T00:11:15.936Z,24.87
2017-01-12T00:12:15.892Z,24.87
2017-01-12T00:13:16.005Z,25.07
2017-01-12T00:14:15.563Z,24.87
2017-01-12T00:15:15.567Z,24.87
2017-01-12T00:16:15.625Z,24.87
2017-01-12T00:17:15.979Z,24.87
2017-01-12T00:18:16.015Z,25.07
2017-01-12T00:19:15.946Z,24.97
2017-01-12T00:20:15.603Z,25.07
2017-01-12T00:21:16.007Z,25.05
2017-01-12T00:22:15.963Z,24.97
2017-01-12T00:23:15.572Z,24.87
2017-01-12T00:24:16.027Z,25.07
2017-01-12T00:25:15.587Z,24.97
2017-01-12T00:26:15.990Z,25.07
2017-01-12T00:27:16.072Z,24.97
2017-01-12T00:28:15.955Z,25.07
2017-01-12T00:29:15.666Z,24.87
2017-01-12T00:30:16.029Z,24.86
2017-01-12T00:31:16.025Z,24.97
2017-01-12T00:32:16.032Z,24.96
2017-01-12T00:33:16.089Z,25.54
2017-01-12T00:34:16.047Z,25.35
2017-01-12T00:35:15.707Z,25.05
2017-01-12T00:36:16.063Z,25.54
2017-01-12T00:37:15.721Z,24.96
2017-01-12T00:38:16.076Z,25.35
2017-01-12T00:39:16.134Z,25.05
2017-01-12T00:40:15.705Z,24.77
2017-01-12T00:41:16.147Z,24.77
2017-01-12T00:42:16.159Z,24.86
2017-01-12T00:43:15.716Z,24.67
2017-01-12T00:44:15.778Z,24.77
2017-01-12T00:45:16.074Z,24.18
2017-01-12T00:46:16.180Z,24.57
2017-01-12T00:47:15.692Z,24.48
2017-01-12T00:48:16.195Z,24.09
2017-01-12T00:49:15.756Z,24.57
2017-01-12T00:50:15.764Z,24.48
2017-01-12T00:51:15.820Z,24.57
2017-01-12T00:52:15.777Z,24.46
2017-01-12T00:53:16.229Z,24.28
2017-01-12T00:54:15.841Z,24.38
2017-01-12T00:55:16.493Z,24.57
2017-01-12T00:56:15.803Z,24.48
2017-01-12T00:57:16.307Z,24.09
2017-01-12T00:58:30.646Z,23.98
2017-01-12T00:59:15.824Z,24.46
2017-01-12T01:00:16.229Z,23.98
2017-01-12T01:01:15.888Z,24.46
2017-01-12T01:02:16.290Z,23.98
2017-01-12T01:03:15.853Z,24.37
2017-01-12T01:04:16.257Z,24.46
2017-01-12T01:05:16.315Z,24.17
2017-01-12T01:06:16.319Z,24.09
2017-01-12T01:07:15.930Z,23.99
2017-01-12T01:08:16.282Z,24.09
2017-01-12T01:09:15.895Z,24.28
2017-01-12T01:10:16.209Z,24.46
2017-01-12T01:11:16.356Z,24.27
2017-01-12T01:12:15.915Z,23.79
2017-01-12T01:13:16.315Z,24.37
2017-01-12T01:14:16.375Z,24.17
2017-01-12T01:15:16.383Z,24.48
2017-01-12T01:16:16.350Z,23.98
2017-01-12T01:17:16.393Z,24.37
2017-01-12T01:18:16.404Z,23.79
2017-01-12T01:19:15.968Z,23.98
2017-01-12T01:20:16.417Z,23.98
2017-01-12T01:21:16.374Z,24.08
2017-01-12T01:22:15.985Z,24.08
2017-01-12T01:23:15.990Z,24.09
2017-01-12T01:24:16.454Z,24.18
2017-01-12T01:25:16.003Z,23.8
2017-01-12T01:26:16.018Z,23.6
2017-01-12T01:27:16.068Z,23.7
2017-01-12T01:28:16.073Z,23.32
2017-01-12T01:29:16.477Z,23.41
2017-01-12T01:30:16.584Z,23.32
2017-01-12T01:31:16.443Z,23.8
2017-01-12T01:32:16.500Z,23.5
2017-01-12T01:33:16.110Z,24.17
2017-01-12T01:34:16.466Z,23.8
2017-01-12T01:35:16.469Z,23.7
2017-01-12T01:36:16.775Z,23.41
2017-01-12T01:37:16.139Z,23.32
2017-01-12T01:38:16.095Z,23.41
2017-01-12T01:39:16.494Z,23.41
2017-01-12T01:40:16.508Z,23.32
2017-01-12T01:41:16.611Z,23.02
2017-01-12T01:42:16.820Z,23.6
2017-01-12T01:43:16.129Z,23.22
2017-01-12T01:44:16.141Z,23.12
2017-01-12T01:45:16.540Z,23.12
2017-01-12T01:46:16.213Z,23.12
2017-01-12T01:47:16.227Z,23.22
2017-01-12T01:48:16.166Z,23.41
2017-01-12T01:49:16.672Z,23.22
2017-01-12T01:50:16.431Z,23.41
2017-01-12T01:51:16.288Z,23.32
2017-01-12T01:52:16.641Z,23.32
2017-01-12T01:53:16.152Z,23.32
2017-01-12T01:54:16.654Z,23.22
2017-01-12T01:55:16.662Z,23.02
2017-01-12T01:56:16.668Z,23.22
2017-01-12T01:57:16.288Z,23.02
2017-01-12T01:58:16.685Z,23.12
2017-01-12T01:59:16.742Z,23.12
2017-01-12T02:00:16.648Z,23.8
2017-01-12T02:01:16.310Z,23.32
2017-01-12T02:02:16.711Z,23.22
2017-01-12T02:03:16.670Z,23.12
2017-01-12T02:04:16.330Z,23.22
2017-01-12T02:05:16.685Z,23.22
2017-01-12T02:06:16.740Z,23.32
2017-01-12T02:07:16.696Z,23.12
2017-01-12T02:08:16.409Z,23.22
2017-01-12T02:09:16.714Z,23.12
2017-01-12T02:10:16.375Z,23.32
2017-01-12T02:11:16.727Z,23.22
2017-01-12T02:12:16.686Z,23.32
2017-01-12T02:13:16.344Z,23.22
2017-01-12T02:14:16.801Z,23.32
2017-01-12T02:15:16.755Z,23.12
2017-01-12T02:16:16.712Z,23.02
2017-01-12T02:17:16.769Z,23.22
2017-01-12T02:18:16.729Z,23.32
2017-01-12T02:19:16.733Z,23.12
2017-01-12T02:20:16.347Z,23.22
2017-01-12T02:21:16.404Z,23.32
2017-01-12T02:22:16.756Z,23.22
2017-01-12T02:23:16.811Z,23.22
2017-01-12T02:24:16.821Z,22.83
2017-01-12T02:25:16.830Z,23.41
2017-01-12T02:26:16.487Z,23.22
2017-01-12T02:27:16.396Z,23.32
2017-01-12T02:28:16.800Z,23.41
2017-01-12T02:29:16.863Z,23.22
2017-01-12T02:30:16.913Z,23.32
2017-01-12T02:31:16.474Z,23.41
2017-01-12T02:32:16.879Z,23.22
2017-01-12T02:33:16.936Z,23.32
2017-01-12T02:34:16.841Z,23.41
2017-01-12T02:35:16.925Z,23.02
2017-01-12T02:36:16.909Z,23.32
2017-01-12T02:37:16.865Z,23.02
2017-01-12T02:38:16.476Z,23.5
2017-01-12T02:39:16.930Z,23.22
2017-01-12T02:40:16.539Z,23.32
2017-01-12T02:41:16.546Z,23.32
2017-01-12T02:42:16.898Z,22.92
2017-01-12T02:43:16.907Z,23.41
2017-01-12T02:44:16.915Z,23.02
2017-01-12T02:45:16.919Z,23.6
2017-01-12T02:46:16.979Z,23.32
2017-01-12T02:47:16.986Z,23.41
2017-01-12T02:48:16.549Z,23.41
2017-01-12T02:49:16.951Z,23.32
2017-01-12T02:50:17.009Z,23.12
2017-01-12T02:51:16.571Z,22.92
2017-01-12T02:52:16.626Z,23.41
2017-01-12T02:53:16.634Z,23.32
2017-01-12T02:54:16.691Z,23.22
2017-01-12T02:55:16.649Z,23.41
2017-01-12T02:56:17.002Z,23.22
2017-01-12T02:57:16.613Z,23.22
2017-01-12T02:58:17.016Z,23.12
2017-01-12T02:59:17.021Z,23.12
2017-01-12T03:00:16.686Z,23.41
2017-01-12T03:01:17.086Z,23.41
2017-01-12T03:02:16.650Z,22.92
2017-01-12T03:03:17.053Z,22.83
2017-01-12T03:04:16.710Z,22.92
2017-01-12T03:05:17.070Z,23.12
2017-01-12T03:06:16.679Z,23.22
2017-01-12T03:07:17.079Z,23.12
2017-01-12T03:08:16.692Z,23.22
2017-01-12T03:09:16.699Z,23.32
2017-01-12T03:10:17.101Z,22.92
2017-01-12T03:11:16.760Z,23.21
2017-01-12T03:12:17.166Z,23.32
2017-01-12T03:13:17.174Z,23.32
2017-01-12T03:14:16.736Z,23.3
2017-01-12T03:15:16.743Z,23.3
2017-01-12T03:16:16.848Z,23.01
2017-01-12T03:17:17.201Z,23.41
2017-01-12T03:18:17.160Z,23.22
2017-01-12T03:19:16.770Z,23.22
2017-01-12T03:20:17.178Z,23.32
2017-01-12T03:21:17.180Z,23.41
2017-01-12T03:22:16.843Z,23.32
2017-01-12T03:23:17.245Z,23.32
2017-01-12T03:24:16.858Z,23.3
2017-01-12T03:25:17.258Z,23.22
2017-01-12T03:26:17.217Z,22.92
2017-01-12T03:27:16.879Z,22.92
2017-01-12T03:28:31.712Z,22.92
2017-01-12T03:29:16.842Z,22.92
2017-01-12T03:30:16.901Z,23.02
2017-01-12T03:31:17.250Z,23.22
2017-01-12T03:32:17.312Z,22.92
2017-01-12T03:33:17.267Z,23.12
2017-01-12T03:34:16.940Z,23.02
2017-01-12T03:35:16.887Z,23.12
2017-01-12T03:36:17.336Z,23.02
2017-01-12T03:37:16.899Z,22.92
2017-01-12T03:38:17.355Z,23.02
2017-01-12T03:39:17.309Z,22.92
2017-01-12T03:40:16.919Z,23.12
2017-01-12T03:41:17.323Z,23.3
2017-01-12T03:42:16.934Z,23.5
2017-01-12T03:43:16.990Z,23.41
2017-01-12T03:44:16.996Z,23.01
2017-01-12T03:45:17.004Z,23.12
2017-01-12T03:46:16.970Z,22.92
2017-01-12T03:47:17.367Z,23.02
2017-01-12T03:48:17.028Z,22.92
2017-01-12T03:49:17.033Z,23.12
2017-01-12T03:50:17.442Z,23.12
2017-01-12T03:51:17.099Z,22.92
2017-01-12T03:52:17.004Z,22.92
2017-01-12T03:53:17.411Z,23.02
2017-01-12T03:54:17.465Z,23.02
2017-01-12T03:55:17.473Z,23.12
2017-01-12T03:56:17.479Z,23.02
2017-01-12T03:57:17.040Z,22.92
2017-01-12T03:58:17.047Z,23.12
2017-01-12T03:59:17.449Z,23.02
2017-01-12T04:00:17.064Z,22.92
2017-01-12T04:01:17.516Z,22.91
2017-01-12T04:02:17.471Z,22.92
2017-01-12T04:03:17.183Z,23.01
2017-01-12T04:04:17.486Z,22.83
2017-01-12T04:05:17.095Z,23.01
2017-01-12T04:06:17.500Z,22.92
2017-01-12T04:07:17.213Z,23.12
2017-01-12T04:08:17.566Z,22.91
2017-01-12T04:09:17.177Z,22.82
2017-01-12T04:10:17.184Z,22.92
2017-01-12T04:11:17.538Z,22.91
2017-01-12T04:12:17.599Z,22.91
2017-01-12T04:13:17.601Z,23.12
2017-01-12T04:14:17.557Z,23.01
2017-01-12T04:15:17.616Z,22.92
2017-01-12T04:16:17.178Z,23.02
2017-01-12T04:17:17.234Z,22.74
2017-01-12T04:18:17.191Z,22.74
2017-01-12T04:19:17.851Z,22.92
2017-01-12T04:20:17.207Z,22.82
2017-01-12T04:21:17.661Z,22.92
2017-01-12T04:22:17.270Z,22.91
2017-01-12T04:23:17.671Z,22.92
2017-01-12T04:24:17.234Z,23.02
2017-01-12T04:25:17.689Z,22.74
2017-01-12T04:26:17.695Z,22.92
2017-01-12T04:27:17.656Z,23.02
2017-01-12T04:28:34.347Z,23.11
2017-01-12T04:29:17.318Z,22.91
2017-01-12T04:30:17.279Z,23.02
2017-01-12T04:31:17.381Z,23.02
2017-01-12T04:32:17.288Z,23.01
2017-01-12T04:33:17.744Z,22.63
2017-01-12T04:34:17.751Z,23.02
2017-01-12T04:35:17.363Z,22.72
2017-01-12T04:36:17.766Z,22.91
2017-01-12T04:37:17.725Z,22.74
2017-01-12T04:38:17.728Z,23.11
2017-01-12T04:39:17.440Z,22.91
2017-01-12T04:40:17.395Z,23.02
2017-01-12T04:41:17.355Z,22.63
2017-01-12T04:42:17.806Z,22.64
2017-01-12T04:43:17.764Z,22.74
2017-01-12T04:44:17.825Z,22.54
2017-01-12T04:45:17.781Z,22.44
2017-01-12T04:46:17.392Z,22.44
2017-01-12T04:47:17.894Z,22.16
2017-01-12T04:48:17.453Z,22.64
2017-01-12T04:49:17.412Z,22.83
2017-01-12T04:50:17.815Z,22.92
2017-01-12T04:51:17.820Z,23.01
2017-01-12T04:52:17.827Z,22.72
2017-01-12T04:53:17.489Z,22.64
2017-01-12T04:54:17.444Z,22.64
2017-01-12T04:55:17.455Z,22.16
2017-01-12T04:56:17.905Z,22.16
2017-01-12T04:57:17.866Z,22.24
2017-01-12T04:58:17.525Z,22.54
2017-01-12T04:59:17.979Z,22.83
2017-01-12T05:00:17.885Z,22.91
2017-01-12T05:01:17.891Z,22.74
2017-01-12T05:02:17.949Z,22.92
2017-01-12T05:03:18.004Z,22.63
2017-01-12T05:04:17.911Z,22.33
2017-01-12T05:05:17.972Z,22.34
2017-01-12T05:06:17.584Z,22.44
2017-01-12T05:07:17.537Z,22.34
2017-01-12T05:08:17.594Z,22.25
2017-01-12T05:09:17.658Z,22.24
2017-01-12T05:10:17.560Z,22.25
2017-01-12T05:11:18.060Z,22.34
2017-01-12T05:12:17.572Z,22.34
2017-01-12T05:13:17.976Z,22.34
2017-01-12T05:14:17.586Z,22.34
2017-01-12T05:15:18.037Z,22.34
2017-01-12T05:16:17.602Z,22.25
2017-01-12T05:17:18.056Z,22.25
2017-01-12T05:18:18.062Z,22.14
2017-01-12T05:19:18.021Z,22.16
2017-01-12T05:20:17.629Z,22.25
2017-01-12T05:21:17.637Z,22.34
2017-01-12T05:22:17.704Z,22.25
2017-01-12T05:23:18.047Z,22.14
2017-01-12T05:24:17.706Z,22.43
2017-01-12T05:25:18.063Z,22.34
2017-01-12T05:26:18.024Z,22.34
2017-01-12T05:27:18.075Z,22.44
2017-01-12T05:28:18.082Z,22.16
2017-01-12T05:29:17.792Z,22.24
2017-01-12T05:30:18.096Z,22.24
2017-01-12T05:31:18.156Z,22.53
2017-01-12T05:32:17.762Z,22.33
2017-01-12T05:33:17.721Z,22.24
2017-01-12T05:34:18.176Z,22.44
2017-01-12T05:35:17.788Z,22.64
2017-01-12T05:36:17.742Z,21.95
2017-01-12T05:37:18.143Z,21.96
2017-01-12T05:38:17.809Z,21.96
2017-01-12T05:39:18.210Z,22.43
2017-01-12T05:40:18.215Z,22.54
2017-01-12T05:41:17.778Z,22.43
2017-01-12T05:42:17.783Z,22.24
2017-01-12T05:43:17.792Z,22.43
2017-01-12T05:44:17.799Z,22.64
2017-01-12T05:45:17.855Z,22.43
2017-01-12T05:46:18.208Z,22.33
2017-01-12T05:47:18.215Z,22.25
2017-01-12T05:48:17.877Z,22.33
2017-01-12T05:49:18.226Z,22.24
2017-01-12T05:50:17.840Z,22.33
2017-01-12T05:51:18.293Z,22.24
2017-01-12T05:52:18.297Z,22.24
2017-01-12T05:53:17.864Z,22.33
2017-01-12T05:54:17.869Z,22.43
2017-01-12T05:55:18.268Z,22.34
2017-01-12T05:56:17.933Z,21.96
2017-01-12T05:57:18.333Z,21.75
2017-01-12T05:58:17.895Z,22.44
2017-01-12T05:59:18.001Z,22.34
2017-01-12T06:00:17.963Z,22.43
2017-01-12T06:01:17.963Z,22.24
2017-01-12T06:02:18.368Z,22.53
2017-01-12T06:03:17.980Z,22.14
2017-01-12T06:04:17.989Z,22.43
2017-01-12T06:05:18.391Z,22.24
2017-01-12T06:06:18.398Z,22.33
2017-01-12T06:07:17.965Z,22.53
2017-01-12T06:08:18.360Z,22.24
2017-01-12T06:09:18.078Z,22.33
2017-01-12T06:10:18.379Z,22.33
2017-01-12T06:11:18.433Z,22.33
2017-01-12T06:12:17.994Z,22.33
2017-01-12T06:13:17.998Z,22.14
2017-01-12T06:14:18.008Z,21.95
2017-01-12T06:15:18.066Z,21.96
2017-01-12T06:16:18.469Z,22.43
2017-01-12T06:17:18.476Z,22.24
2017-01-12T06:18:18.432Z,21.95
2017-01-12T06:19:18.490Z,22.05
2017-01-12T06:20:18.497Z,22.16
2017-01-12T06:21:18.056Z,22.14
2017-01-12T06:22:18.066Z,21.85
2017-01-12T06:23:18.517Z,22.24
2017-01-12T06:24:18.080Z,22.53
2017-01-12T06:25:18.580Z,21.95
2017-01-12T06:26:18.091Z,21.95
2017-01-12T06:27:18.099Z,22.06
2017-01-12T06:29:18.165Z,22.16
2017-01-12T06:30:18.513Z,22.06
2017-01-12T06:31:18.624Z,22.05
2017-01-12T06:32:18.182Z,22.25
2017-01-12T06:33:18.246Z,22.33
2017-01-12T06:34:18.545Z,21.95
2017-01-12T06:35:18.156Z,22.16
2017-01-12T06:36:18.608Z,22.05
2017-01-12T06:37:18.565Z,21.95
2017-01-12T06:38:18.179Z,21.85
2017-01-12T06:39:18.677Z,21.85
2017-01-12T06:40:18.191Z,21.95
2017-01-12T06:41:18.592Z,22.25
2017-01-12T06:42:18.598Z,22.05
2017-01-12T06:43:18.259Z,22.16
2017-01-12T06:44:18.266Z,22.16
2017-01-12T06:45:18.225Z,22.24
2017-01-12T06:46:18.284Z,21.95
2017-01-12T06:47:18.236Z,22.16
2017-01-12T06:48:18.688Z,22.05
2017-01-12T06:49:18.697Z,21.96
2017-01-12T06:50:18.703Z,21.95
2017-01-12T06:51:18.712Z,21.95
2017-01-12T06:52:18.666Z,22.24
2017-01-12T06:53:18.329Z,22.05
2017-01-12T06:54:18.680Z,22.14
2017-01-12T06:55:18.342Z,21.96
2017-01-12T06:56:18.351Z,22.16
2017-01-12T06:57:18.353Z,22.16
2017-01-12T06:58:18.662Z,22.16
2017-01-12T06:59:18.768Z,22.06
2017-01-12T07:00:18.325Z,21.96
2017-01-12T07:01:18.333Z,22.14
2017-01-12T07:02:18.735Z,22.16
2017-01-12T07:03:18.793Z,21.95
2017-01-12T07:04:18.749Z,22.33
2017-01-12T07:05:18.361Z,22.06
2017-01-12T07:06:18.415Z,22.16
2017-01-12T07:07:18.371Z,22.16
2017-01-12T07:08:18.777Z,22.06
2017-01-12T07:09:18.783Z,22.14
2017-01-12T07:10:18.790Z,22.05
2017-01-12T07:11:18.456Z,22.16
2017-01-12T07:12:18.854Z,22.16
2017-01-12T07:13:18.464Z,21.95
2017-01-12T07:14:18.868Z,22.05
2017-01-12T07:15:18.428Z,22.16
2017-01-12T07:16:18.486Z,21.95
2017-01-12T07:17:18.838Z,21.95
2017-01-12T07:18:18.499Z,22.05
2017-01-12T07:19:18.903Z,22.33
2017-01-12T07:20:18.528Z,21.95
2017-01-12T07:21:18.523Z,22.24
2017-01-12T07:22:18.872Z,22.05
2017-01-12T07:23:18.485Z,22.05
2017-01-12T07:24:18.492Z,22.14
2017-01-12T07:25:18.945Z,22.14
2017-01-12T07:26:18.505Z,22.16
2017-01-12T07:27:18.513Z,22.25
2017-01-12T07:28:33.450Z,22.14
2017-01-12T07:29:18.974Z,22.24
2017-01-12T07:30:18.532Z,22.14
2017-01-12T07:31:18.989Z,22.14
2017-01-12T07:32:19.046Z,22.14
2017-01-12T07:33:19.000Z,22.14
2017-01-12T07:34:18.958Z,22.06
2017-01-12T07:35:19.065Z,21.86
2017-01-12T07:36:18.972Z,21.67
2017-01-12T07:37:19.029Z,21.3
2017-01-12T07:38:18.689Z,21.1
2017-01-12T07:39:19.043Z,21
2017-01-12T07:40:18.604Z,20.62
2017-01-12T07:41:18.711Z,20.72
2017-01-12T07:42:19.416Z,20.43
2017-01-12T07:43:18.676Z,20.24
2017-01-12T07:44:19.026Z,20.62
2017-01-12T07:45:18.638Z,20.15
2017-01-12T07:46:19.045Z,20.06
2017-01-12T07:47:19.106Z,20.06
2017-01-12T07:48:18.662Z,19.78
2017-01-12T07:49:19.114Z,19.67
2017-01-12T07:50:18.726Z,20.06
2017-01-12T07:51:19.180Z,19.78
2017-01-12T07:52:18.739Z,19.09
2017-01-12T07:53:19.144Z,19
2017-01-12T07:54:18.735Z,19.29
2017-01-12T07:55:18.764Z,19.29
2017-01-12T07:56:18.770Z,18.81
2017-01-12T07:57:19.173Z,18.81
2017-01-12T07:58:18.735Z,18.91
2017-01-12T07:59:18.797Z,18.81
2017-01-12T08:00:19.197Z,19.01
2017-01-12T08:01:19.204Z,18.81
2017-01-12T08:02:19.210Z,18.73
2017-01-12T08:03:19.274Z,18.92
2017-01-12T08:04:19.476Z,18.53
2017-01-12T08:05:18.789Z,18.82
2017-01-12T08:06:18.795Z,18.82
2017-01-12T08:07:19.202Z,18.82
2017-01-12T08:08:18.811Z,18.63
2017-01-12T08:09:18.819Z,18.73
2017-01-12T08:10:18.831Z,18.53
2017-01-12T08:11:19.231Z,18.63
2017-01-12T08:12:19.291Z,18.73
2017-01-12T08:13:19.247Z,18.33
2017-01-12T08:14:19.304Z,18.15
2017-01-12T08:15:19.312Z,18.53
2017-01-12T08:16:19.322Z,18.33
2017-01-12T08:17:18.930Z,18.43
2017-01-12T08:18:19.636Z,18.24
2017-01-12T08:19:19.345Z,18.53
2017-01-12T08:20:19.507Z,18.43
2017-01-12T08:21:19.457Z,18.43
2017-01-12T08:22:19.364Z,18.73
2017-01-12T08:23:19.425Z,18.44
2017-01-12T08:24:19.430Z,18.25
2017-01-12T08:25:19.440Z,18.35
2017-01-12T08:26:19.648Z,18.25
2017-01-12T08:27:19.458Z,18.33
2017-01-12T08:28:19.464Z,18.15
2017-01-12T08:29:19.023Z,18.63
2017-01-12T08:30:20.527Z,18.64
2017-01-12T08:31:19.487Z,18.54
2017-01-12T08:32:19.849Z,18.54
2017-01-12T08:33:19.113Z,18.35
2017-01-12T08:34:19.514Z,18.33
2017-01-12T08:35:20.118Z,18.53
2017-01-12T08:36:19.079Z,18.64
2017-01-12T08:37:19.635Z,18.73
2017-01-12T08:38:19.197Z,18.54
2017-01-12T08:39:19.549Z,18.25
2017-01-12T08:40:19.809Z,18.43
2017-01-12T08:41:19.516Z,18.54
2017-01-12T08:42:19.524Z,18.25
2017-01-12T08:43:20.486Z,17.86
2017-01-12T08:44:19.591Z,17.86
2017-01-12T08:45:19.504Z,18.64
2017-01-12T08:46:20.756Z,17.96
2017-01-12T08:47:19.219Z,18.35
2017-01-12T08:48:19.176Z,18.35
2017-01-12T08:49:19.630Z,18.44
2017-01-12T08:50:19.301Z,17.86
2017-01-12T08:51:19.648Z,18.25
2017-01-12T08:52:19.659Z,18.15
2017-01-12T08:53:19.269Z,18.15
2017-01-12T08:54:19.623Z,18.15
2017-01-12T08:55:19.736Z,18.16
2017-01-12T08:56:20.194Z,17.77
2017-01-12T08:57:19.205Z,17.58
2017-01-12T08:58:19.658Z,18.16
2017-01-12T08:59:19.718Z,18.07
2017-01-12T09:00:21.131Z,17.97
2017-01-12T09:01:20.034Z,18.07
2017-01-12T09:02:19.745Z,18.16
2017-01-12T09:03:19.755Z,17.97
2017-01-12T09:04:20.071Z,17.97
2017-01-12T09:05:19.825Z,18.07
2017-01-12T09:06:19.531Z,17.87
2017-01-12T09:07:19.739Z,18.07
2017-01-12T09:08:19.894Z,18.26
2017-01-12T09:09:34.237Z,17.68
2017-01-12T09:10:19.418Z,17.87
2017-01-12T09:11:19.823Z,17.87
2017-01-12T09:12:21.532Z,17.68
2017-01-12T09:13:19.896Z,17.58
2017-01-12T09:14:21.653Z,17.68
2017-01-12T09:15:20.110Z,17.49
2017-01-12T09:16:20.374Z,17.68
2017-01-12T09:17:20.490Z,17.58
2017-01-12T09:18:20.286Z,17
2017-01-12T09:19:19.845Z,17
2017-01-12T09:20:20.456Z,17.68
2017-01-12T09:21:20.014Z,17.78
2017-01-12T09:22:19.924Z,17.68
2017-01-12T09:23:19.887Z,17
2017-01-12T09:24:19.597Z,17.49
2017-01-12T09:25:20.153Z,17.4
2017-01-12T09:26:19.519Z,17.3
2017-01-12T09:27:19.923Z,17
2017-01-12T09:28:23.438Z,17.2
2017-01-12T09:29:19.944Z,17
2017-01-12T09:30:19.613Z,17.1
2017-01-12T09:31:20.011Z,17.2
2017-01-12T09:32:19.580Z,17
2017-01-12T09:33:19.985Z,17.1
2017-01-12T09:34:19.996Z,17.1
2017-01-12T09:35:21.516Z,17
2017-01-12T09:36:20.120Z,17.49
2017-01-12T09:37:20.074Z,17.58
2017-01-12T09:38:20.035Z,17.2
2017-01-12T09:39:20.093Z,17.68
2017-01-12T09:40:20.104Z,17.68
2017-01-12T09:41:20.120Z,17.58
2017-01-12T09:42:19.675Z,17.68
2017-01-12T09:43:20.080Z,17.78
2017-01-12T09:44:20.944Z,17.78
2017-01-12T09:45:20.252Z,17.58
2017-01-12T09:46:19.661Z,17.78
2017-01-12T09:47:21.120Z,17.88
2017-01-12T09:48:20.155Z,17.97
2017-01-12T09:49:20.388Z,17.78
2017-01-12T09:50:20.097Z,17.78
2017-01-12T09:51:20.060Z,17.78
2017-01-12T09:52:20.217Z,17.88
2017-01-12T09:53:20.228Z,17.49
2017-01-12T09:54:20.187Z,17.68
2017-01-12T09:55:21.245Z,17
2017-01-12T09:57:20.212Z,17.97
2017-01-12T09:58:20.223Z,17.78
2017-01-12T09:59:20.335Z,17.49
2017-01-12T10:01:20.299Z,17.49
2017-01-12T10:02:19.862Z,17.68
2017-01-12T10:03:19.968Z,17.3
2017-01-12T10:04:20.274Z,17.68
2017-01-12T10:05:20.887Z,17.88
2017-01-12T10:06:20.344Z,17.77
2017-01-12T10:07:19.903Z,18.16
2017-01-12T10:08:19.913Z,18.07
2017-01-12T10:09:20.668Z,18.07
2017-01-12T10:10:21.030Z,17.97
2017-01-12T10:11:20.489Z,18.07
2017-01-12T10:12:20.345Z,18.26
2017-01-12T10:13:20.956Z,17.97
2017-01-12T10:14:20.462Z,17.68
2017-01-12T10:15:20.519Z,17.87
2017-01-12T10:16:20.433Z,18.07
2017-01-12T10:17:20.388Z,18.26
2017-01-12T10:18:20.051Z,17.87
2017-01-12T10:19:20.456Z,18.07
2017-01-12T10:20:20.118Z,18.35
2017-01-12T10:21:20.076Z,18.54
2017-01-12T10:22:20.584Z,18.44
2017-01-12T10:23:20.490Z,18.35
2017-01-12T10:24:21.865Z,18.64
2017-01-12T10:25:20.507Z,18.83
2017-01-12T10:26:20.517Z,18.54
2017-01-12T10:27:20.523Z,18.83
2017-01-12T10:28:20.481Z,18.63
2017-01-12T10:29:21.194Z,18.25
2017-01-12T10:30:20.699Z,17.86
2017-01-12T10:31:20.555Z,18.25
2017-01-12T10:32:20.513Z,18.25
2017-01-12T10:33:20.186Z,18.73
2017-01-12T10:34:22.582Z,17.96
2017-01-12T10:35:20.892Z,17.76
2017-01-12T10:36:21.700Z,17.86
2017-01-12T10:37:20.208Z,18.73
2017-01-12T10:38:20.739Z,17.86
2017-01-12T10:39:20.623Z,17.96
2017-01-12T10:40:20.980Z,18.35
2017-01-12T10:41:22.295Z,18.15
2017-01-12T10:42:20.701Z,18.25
2017-01-12T10:43:20.508Z,18.35
2017-01-12T10:44:20.616Z,18.25
2017-01-12T10:45:21.876Z,18.15
2017-01-12T10:46:20.536Z,18.16
2017-01-12T10:47:20.189Z,18.05
2017-01-12T10:48:20.497Z,17.96
2017-01-12T10:49:20.258Z,17.96
2017-01-12T10:50:20.221Z,18.05
2017-01-12T10:51:20.668Z,17.86
2017-01-12T10:52:20.727Z,18.15
2017-01-12T10:53:20.342Z,18.05
2017-01-12T10:54:20.693Z,18.05
2017-01-12T10:55:23.201Z,17.86
2017-01-12T10:56:20.365Z,18.64
2017-01-12T10:57:20.719Z,18.35
2017-01-12T10:58:20.479Z,18.64
2017-01-12T10:59:20.734Z,18.15
2017-01-12T11:00:21.343Z,18.35
2017-01-12T11:01:21.257Z,18.64
2017-01-12T11:03:21.066Z,18.73
2017-01-12T11:04:21.026Z,18.25
2017-01-12T11:05:22.081Z,17.86
2017-01-12T11:06:20.941Z,18.83
2017-01-12T11:07:20.849Z,17.86
2017-01-12T11:08:35.336Z,18.64
2017-01-12T11:09:20.418Z,18.54
2017-01-12T11:10:20.425Z,18.05
2017-01-12T11:11:20.833Z,18.25
2017-01-12T11:12:22.494Z,18.05
2017-01-12T11:13:20.846Z,18.05
2017-01-12T11:14:20.905Z,18.15
2017-01-12T11:15:20.518Z,18.54
2017-01-12T11:17:20.533Z,18.05
2017-01-12T11:18:20.937Z,17.96
2017-01-12T11:19:20.498Z,18.15
2017-01-12T11:20:20.507Z,17.96
2017-01-12T11:21:21.161Z,18.35
2017-01-12T11:22:21.371Z,18.16
2017-01-12T11:23:21.429Z,18.25
2017-01-12T11:24:20.941Z,18.05
2017-01-12T11:25:20.547Z,18.05
2017-01-12T11:26:22.758Z,18.15
2017-01-12T11:27:20.715Z,18.25
2017-01-12T11:28:23.819Z,18.25
2017-01-12T11:29:21.437Z,18.25
2017-01-12T11:30:20.736Z,17.96
2017-01-12T11:31:21.791Z,18.05
2017-01-12T11:32:21.949Z,18.25
2017-01-12T11:33:20.710Z,18.25
2017-01-12T11:34:22.566Z,18.15
2017-01-12T11:35:20.975Z,18.15
2017-01-12T11:36:21.130Z,18.35
2017-01-12T11:37:20.646Z,18.35
2017-01-12T11:38:21.898Z,18.07
2017-01-12T11:39:21.154Z,18.64
2017-01-12T11:40:22.165Z,18.15
2017-01-12T11:41:21.124Z,18.35
2017-01-12T11:42:21.179Z,18.53
2017-01-12T11:43:22.842Z,18.92
2017-01-12T11:44:21.595Z,19.02
2017-01-12T11:45:21.207Z,18.92
2017-01-12T11:46:21.515Z,18.92
2017-01-12T11:47:21.120Z,18.82
2017-01-12T11:48:20.830Z,18.92
2017-01-12T11:49:21.233Z,18.73
2017-01-12T11:50:22.593Z,18.92
2017-01-12T11:51:21.201Z,18.63
2017-01-12T11:52:21.409Z,18.53
2017-01-12T11:53:21.171Z,18.53
2017-01-12T11:54:21.729Z,18.35
2017-01-12T11:55:21.432Z,18.15
2017-01-12T11:56:20.745Z,18.35
2017-01-12T11:57:21.699Z,18.44
2017-01-12T11:58:22.112Z,18.25
2017-01-12T11:59:21.262Z,17.96
2017-01-12T12:00:21.272Z,18.35
2017-01-12T12:01:22.183Z,18.05
2017-01-12T12:02:21.236Z,17.96
2017-01-12T12:03:21.845Z,18.73
2017-01-12T12:04:20.805Z,18.64
2017-01-12T12:05:22.870Z,17.96
2017-01-12T12:06:20.922Z,17.96
2017-01-12T12:07:21.222Z,18.35
2017-01-12T12:08:20.986Z,17.86
2017-01-12T12:09:22.544Z,18.44
2017-01-12T12:10:21.450Z,18.44
2017-01-12T12:11:21.607Z,18.35
2017-01-12T12:12:22.074Z,18.73
2017-01-12T12:13:20.976Z,18.25
2017-01-12T12:14:22.336Z,18.64
2017-01-12T12:15:20.998Z,18.73
2017-01-12T12:16:21.002Z,18.05
2017-01-12T12:17:21.811Z,17.86
2017-01-12T12:18:35.845Z,18.25
2017-01-12T12:19:21.305Z,18.54
2017-01-12T12:20:21.731Z,18.44
2017-01-12T12:21:21.335Z,18.54
2017-01-12T12:22:21.774Z,18.15
2017-01-12T12:23:23.163Z,17.96
2017-01-12T12:24:21.016Z,17.96
2017-01-12T12:25:35.903Z,18.15
2017-01-12T12:26:21.291Z,18.26
2017-01-12T12:27:21.444Z,18.05
2017-01-12T12:28:35.876Z,18.25
2017-01-12T12:29:22.502Z,18.35
2017-01-12T12:30:21.119Z,18.25
2017-01-12T12:31:21.420Z,18.15
2017-01-12T12:32:21.080Z,17.96
2017-01-12T12:33:21.088Z,18.73
2017-01-12T12:34:21.546Z,18.25
2017-01-12T12:35:21.105Z,18.63
2017-01-12T12:36:21.166Z,18.73
2017-01-12T12:37:21.171Z,19.02
2017-01-12T12:38:21.182Z,18.15
2017-01-12T12:39:21.587Z,18.54
2017-01-12T12:40:21.692Z,18.25
2017-01-12T12:41:21.753Z,18.44
2017-01-12T12:42:21.610Z,18.35
2017-01-12T12:43:21.173Z,18.44
2017-01-12T12:44:21.622Z,18.25
2017-01-12T12:45:21.536Z,18.35
2017-01-12T12:46:21.592Z,18.25
2017-01-12T12:47:21.207Z,18.44
2017-01-12T12:48:21.264Z,18.64
2017-01-12T12:49:21.288Z,18.64
2017-01-12T12:50:21.230Z,18.64
2017-01-12T12:51:21.288Z,18.73
2017-01-12T12:52:21.298Z,18.35
2017-01-12T12:53:21.600Z,18.25
2017-01-12T12:54:21.657Z,18.15
2017-01-12T12:55:21.371Z,18.64
2017-01-12T12:56:21.379Z,18.44
2017-01-12T12:57:21.288Z,18.44
2017-01-12T12:58:21.246Z,18.83
2017-01-12T12:59:21.750Z,18.73